Hawaii METAR Reports

 

PHOG - Kahului, Hawaii, USA
Distance from station: WNW 8mi, 13km
Updated: Fri, 25-Sep-2020 3:54pm HST
Few Clouds
Few Clouds
 Wind from ENE
Wind: ENE 18 mph , 30 km/h, Gust: 29 mph , 46 km/h
Temperature: 88°F , 31°C
Heat Index: 90°F , 32°C
Dew Point: 64°F , 18°C
Humidity: 46%
Barometer: 29.97 inHg , 1014.9 hPa
Clouds: Few Clouds
Visibility: 10 miles , 16 km
Cloud details: Few Clouds 4000 ft
2020/09/26 01:54 PHOG 260154Z 06016G25KT 10SM FEW040 31/18 A2997 RMK AO2 PK WND 05033/0102 SLP152 T03060183
PHJH - Lahaina/West Mau, Hawaii, USA
Distance from station: WNW 24mi, 39km
Updated: Fri, 25-Sep-2020 2:45pm HST
NOT Current
Partly Cloudy
Partly Cloudy
 Wind from ENE
Wind: ENE 12 mph , 19 km/h
Temperature: 88°F , 31°C
Heat Index: 91°F , 33°C
Dew Point: 66°F , 19°C
Humidity: 49%
Barometer: 30.00 inHg , 1015.9 hPa
Clouds: Partly Cloudy
Visibility: 15 miles , 24 km
Cloud details: Few Clouds 3500 ft
Partly Cloudy 4500 ft
2020/09/26 00:45 PHJH 260045Z 07010KT 15SM FEW035 SCT045 31/19 A3000 RMK LAST
 
PHNY - Lanai City Airpo, Hawaii, USA
Distance from station: W 40mi, 65km
Updated: Fri, 25-Sep-2020 4:28pm HST
Overcast
Overcast
 Wind from varies
Wind: varies 5 mph , 7 km/h
Temperature: 77°F , 25°C
Dew Point: 72°F , 22°C
Humidity: 83%
Barometer: 30.05 inHg , 1017.6 hPa
Clouds: Overcast
Visibility: 10 miles , 16 km
Cloud details: Mostly Cloudy 2300 ft
Overcast 4200 ft
2020/09/26 02:28 PHNY 260228Z AUTO VRB04KT 10SM BKN023 OVC042 25/22 A3005 RMK AO2
PHMK - Molokai, Hawaii, USA
Distance from station: WNW 55mi, 88km
Updated: Fri, 25-Sep-2020 3:54pm HST
Partly Cloudy
Partly Cloudy
 Wind from NE
Wind: NE 16 mph , 26 km/h, Gust: 29 mph , 46 km/h
Temperature: 82°F , 28°C
Heat Index: 84°F , 29°C
Dew Point: 66°F , 19°C
Humidity: 58%
Barometer: 30.00 inHg , 1015.9 hPa
Clouds: Partly Cloudy
Visibility: 10 miles , 16 km
Cloud details: Few Clouds 3300 ft
Partly Cloudy 5500 ft
2020/09/26 01:54 PHMK 260154Z 04014G25KT 10SM FEW033 SCT055 28/19 A3000 RMK AO2 PK WND 03027/0100 SLP160 T02780189
 
PHKO - Kailua/Kona, Hawaii, USA
Distance from station: SSE 79mi, 128km
Updated: Fri, 25-Sep-2020 3:53pm HST
Overcast
Overcast
 Wind from ESE
Wind: ESE 12 mph , 19 km/h
Temperature: 84°F , 29°C
Heat Index: 88°F , 31°C
Dew Point: 70°F , 21°C
Humidity: 62%
Barometer: 29.96 inHg , 1014.6 hPa
Clouds: Overcast
Visibility: 10 miles , 16 km
Cloud details: Overcast 6000 ft
2020/09/26 01:53 PHKO 260153Z 12010KT 10SM OVC060 29/21 A2996 RMK AO2 SLP144 T02890211
PHSF - Bradshaw Aaf/Haw, Hawaii, USA
Distance from station: SE 90mi, 145km
Updated: Fri, 25-Sep-2020 4:26pm HST
Mostly Cloudy
Mostly Cloudy
 Wind from SW
Wind: SW 6 mph , 9 km/h
Temperature: 63°F , 17°C
Dew Point: 54°F , 12°C
Humidity: 73%
Barometer: 30.31 inHg , 1026.4 hPa
Clouds: Mostly Cloudy
Visibility: 10 miles , 16 km
Cloud details: Partly Cloudy 900 ft
Mostly Cloudy 1800 ft
Mostly Cloudy 2800 ft
2020/09/26 02:26 PHSF 260226Z AUTO 22005KT 10SM SCT009 BKN018 BKN028 17/12 A3031 RMK AO2 CIG 009V018 SLP159 WND DATA ESTMD $
 
PHNG - Kaneohe Mcas, Hawaii, USA
Distance from station: WNW 102mi, 164km
Updated: Fri, 25-Sep-2020 3:57pm HST
Few Clouds
Few Clouds
 Wind from ENE
Wind: ENE 14 mph , 22 km/h
Temperature: 84°F , 29°C
Heat Index: 88°F , 31°C
Dew Point: 70°F , 21°C
Humidity: 62%
Barometer: 29.99 inHg , 1015.6 hPa
Clouds: Few Clouds
Visibility: 10 miles , 16 km
Cloud details: Few Clouds 3000 ft
2020/09/26 01:57 PHNG 260157Z 06012KT 10SM FEW030 29/21 A2999 RMK AO2 SLP149 T02890206 $
PHNL - Honolulu, Hawaii, USA
Distance from station: WNW 108mi, 174km
Updated: Fri, 25-Sep-2020 3:53pm HST
Few Clouds
Few Clouds
 Wind from NE
Wind: NE 17 mph , 28 km/h, Gust: 23 mph , 37 km/h
Temperature: 88°F , 31°C
Heat Index: 89°F , 32°C
Dew Point: 63°F , 17°C
Humidity: 43%
Barometer: 29.99 inHg , 1015.6 hPa
Clouds: Few Clouds
Visibility: 10 miles , 16 km
Cloud details: Few Clouds 2500 ft
Few Clouds 5000 ft
2020/09/26 01:53 PHNL 260153Z 04015G20KT 10SM FEW025 FEW050 31/17 A2999 RMK AO2 SLP154 T03060172
 
PHTO - Hilo, Hawaii, USA
Distance from station: SE 114mi, 183km
Updated: Fri, 25-Sep-2020 3:53pm HST
Mostly Cloudy
Mostly Cloudy
 Wind from N
Wind: N 6 mph , 9 km/h
Temperature: 82°F , 28°C
Heat Index: 85°F , 29°C
Dew Point: 68°F , 20°C
Humidity: 62%
Barometer: 30.00 inHg , 1015.9 hPa
Clouds: Mostly Cloudy
Visibility: 10 miles , 16 km
Cloud details: Partly Cloudy 5500 ft
Mostly Cloudy 8000 ft
2020/09/26 01:53 PHTO 260153Z 01005KT 10SM SCT055 BKN080 28/20 A3000 RMK AO2 SLP157 T02780200
PHJR - Kalaeloa, Hawaii, USA
Distance from station: WNW 117mi, 189km
Updated: Fri, 25-Sep-2020 3:53pm HST
Clear
Clear
 Wind from ENE
Wind: ENE 12 mph , 19 km/h, Gust: 17 mph , 28 km/h
Temperature: 88°F , 31°C
Heat Index: 89°F , 32°C
Dew Point: 63°F , 17°C
Humidity: 43%
Barometer: 30.00 inHg , 1015.9 hPa
Clouds: Clear
Visibility: 10 miles , 16 km
2020/09/26 01:53 PHJR 260153Z 06010G15KT 10SM CLR 31/17 A3000 RMK AO2 SLP163 T03060172
 
PHHI - Wheeler Afb/Oahu, Hawaii, USA
Distance from station: WNW 120mi, 193km
Updated: Fri, 25-Sep-2020 3:56pm HST
Partly Cloudy
Partly Cloudy
 Wind from E
Wind: E 14 mph , 22 km/h, Gust: 17 mph , 28 km/h
Temperature: 82°F , 28°C
Heat Index: 83°F , 28°C
Dew Point: 63°F , 17°C
Humidity: 51%
Barometer: 30.01 inHg , 1016.3 hPa
Clouds: Partly Cloudy
Visibility: 10 miles , 16 km
Cloud details: Partly Cloudy 3900 ft
2020/09/26 01:56 PHHI 260156Z AUTO 09012G15KT 10SM SCT039 28/17 A3001 RMK AO2 SLP150 T02810170 $
PHLI - Lihue/Kauai Is, Hawaii, USA
Distance from station: WNW 209mi, 336km
Updated: Fri, 25-Sep-2020 3:53pm HST
Partly Cloudy
Partly Cloudy
 Wind from NE
Wind: NE 13 mph , 20 km/h
Temperature: 86°F , 30°C
Heat Index: 92°F , 33°C
Dew Point: 72°F , 22°C
Humidity: 62%
Barometer: 30.03 inHg , 1016.9 hPa
Clouds: Partly Cloudy
Visibility: 10 miles , 16 km
Cloud details: Partly Cloudy 2100 ft
2020/09/26 01:53 PHLI 260153Z 05011KT 10SM SCT021 30/22 A3003 RMK AO2 SLP166 T03000222
 
PHBK - Barking Sands/Ka, Hawaii, USA
Distance from station: WNW 237mi, 382km
Updated: Fri, 25-Sep-2020 3:56pm HST
Mostly Cloudy
Mostly Cloudy
 Wind from W
Wind: W 9 mph , 15 km/h
Temperature: 88°F , 31°C
Heat Index: 92°F , 33°C
Dew Point: 68°F , 20°C
Humidity: 52%
Barometer: 29.99 inHg , 1015.6 hPa
Clouds: Mostly Cloudy
Visibility: 10 miles , 16 km
Cloud details: Mostly Cloudy 6000 ft
2020/09/26 01:56 PHBK 260156Z AUTO 27008KT 10SM BKN060 31/20 A2999 RMK AO2 SLP156 T03110200